createdAt,value
2023-01-04T00:01:22.781Z,18.10
2023-01-04T00:03:51.875Z,17.97
2023-01-04T00:06:20.794Z,17.73
2023-01-04T00:08:48.573Z,17.93
2023-01-04T00:11:21.556Z,18.73
2023-01-04T00:13:53.441Z,18.80
2023-01-04T00:16:23.746Z,19.30
2023-01-04T00:18:52.847Z,18.17
2023-01-04T00:21:26.355Z,19.27
2023-01-04T00:23:56.329Z,17.63
2023-01-04T00:26:26.194Z,18.00
2023-01-04T00:28:55.647Z,19.40
2023-01-04T00:31:24.387Z,18.27
2023-01-04T00:33:56.039Z,18.40
2023-01-04T00:36:23.778Z,19.17
2023-01-04T00:39:07.908Z,19.37
2023-01-04T00:41:59.237Z,19.17
2023-01-04T00:44:27.857Z,21.30
2023-01-04T00:46:55.350Z,20.13
2023-01-04T00:49:22.633Z,19.00
2023-01-04T00:51:50.108Z,20.97
2023-01-04T00:54:18.296Z,19.47
2023-01-04T00:56:45.973Z,18.17
2023-01-04T00:59:15.530Z,20.60
2023-01-04T01:01:44.272Z,19.37
2023-01-04T01:04:14.415Z,20.63
2023-01-04T01:06:42.115Z,21.63
2023-01-04T01:09:09.943Z,21.20
2023-01-04T01:11:39.098Z,21.33
2023-01-04T01:14:08.085Z,20.97
2023-01-04T01:16:54.525Z,20.27
2023-01-04T01:19:23.432Z,19.67
2023-01-04T01:21:50.700Z,20.97
2023-01-04T01:24:19.959Z,21.53
2023-01-04T01:26:47.507Z,23.87
2023-01-04T01:29:14.976Z,22.50
2023-01-04T01:31:42.432Z,24.17
2023-01-04T01:34:10.224Z,21.93
2023-01-04T01:36:37.496Z,22.80
2023-01-04T01:39:06.148Z,20.80
2023-01-04T01:41:35.137Z,22.70
2023-01-04T01:44:32.924Z,22.87
2023-01-04T01:47:01.442Z,24.63
2023-01-04T01:49:33.990Z,25.63
2023-01-04T01:52:06.787Z,22.03
2023-01-04T01:54:39.204Z,23.10
2023-01-04T01:57:09.554Z,23.97
2023-01-04T01:59:39.870Z,25.20
2023-01-04T02:02:07.505Z,25.63
2023-01-04T02:04:37.531Z,23.80
2023-01-04T02:07:05.915Z,25.73
2023-01-04T02:09:33.777Z,23.00
2023-01-04T02:12:01.135Z,22.00
2023-01-04T02:14:29.217Z,22.27
2023-01-04T02:16:56.708Z,23.73
2023-01-04T02:19:57.914Z,23.67
2023-01-04T02:23:10.505Z,19.97
2023-01-04T02:25:52.658Z,19.60
2023-01-04T02:28:33.632Z,20.73
2023-01-04T02:31:21.451Z,26.83
2023-01-04T02:33:56.168Z,20.33
2023-01-04T02:36:33.124Z,19.27
2023-01-04T02:39:23.904Z,19.47
2023-01-04T02:41:59.180Z,17.87
2023-01-04T02:44:53.531Z,19.00
2023-01-04T02:47:47.017Z,19.37
2023-01-04T02:50:32.256Z,18.37
2023-01-04T02:53:14.028Z,20.17
2023-01-04T02:55:51.321Z,20.93
2023-01-04T02:58:31.915Z,20.77
2023-01-04T03:01:47.218Z,19.43
2023-01-04T03:05:03.209Z,19.47
2023-01-04T03:07:46.770Z,20.53
2023-01-04T03:10:47.543Z,20.43
2023-01-04T03:13:19.655Z,19.10
2023-01-04T03:15:53.441Z,21.83
2023-01-04T03:18:26.479Z,24.37
2023-01-04T03:20:57.233Z,21.37
2023-01-04T03:23:47.200Z,27.23
2023-01-04T03:26:41.330Z,26.37
2023-01-04T03:30:02.388Z,25.57
2023-01-04T03:33:03.459Z,28.63
2023-01-04T03:35:47.693Z,22.57
2023-01-04T03:38:51.649Z,26.47
2023-01-04T03:41:53.528Z,23.03
2023-01-04T03:44:53.929Z,19.97
2023-01-04T03:47:46.916Z,19.03
2023-01-04T03:50:24.385Z,19.93
2023-01-04T03:52:53.425Z,18.73
2023-01-04T03:55:21.993Z,17.93
2023-01-04T03:57:52.254Z,20.57
2023-01-04T04:00:19.861Z,21.00
2023-01-04T04:02:48.969Z,19.73
2023-01-04T04:05:43.773Z,19.57
2023-01-04T04:08:29.433Z,22.07
2023-01-04T04:11:20.394Z,19.63
2023-01-04T04:13:48.837Z,18.53
2023-01-04T04:16:16.952Z,22.70
2023-01-04T04:18:44.558Z,21.87
2023-01-04T04:21:11.830Z,20.30
2023-01-04T04:23:39.509Z,20.13
2023-01-04T04:26:07.039Z,22.73
2023-01-04T04:28:34.487Z,74.23
2023-01-04T04:31:02.388Z,33.10
2023-01-04T04:33:29.692Z,21.90
2023-01-04T04:35:57.337Z,19.43
2023-01-04T04:38:24.596Z,21.27
2023-01-04T04:41:10.624Z,19.80
2023-01-04T04:43:37.878Z,18.53
2023-01-04T04:46:05.472Z,20.63
2023-01-04T04:48:32.748Z,22.27
2023-01-04T04:51:00.052Z,25.37
2023-01-04T04:53:27.327Z,32.03
2023-01-04T04:55:54.723Z,27.77
2023-01-04T04:58:22.179Z,22.57
2023-01-04T05:00:49.478Z,24.43
2023-01-04T05:03:17.133Z,29.80
2023-01-04T05:05:44.486Z,28.13
2023-01-04T05:08:11.930Z,29.00
2023-01-04T05:10:39.551Z,24.93
2023-01-04T05:13:10.836Z,26.47
2023-01-04T05:15:40.548Z,31.07
2023-01-04T05:18:09.334Z,26.00
2023-01-04T05:20:36.757Z,28.97
2023-01-04T05:23:04.699Z,30.63
2023-01-04T05:25:32.270Z,30.90
2023-01-04T05:27:59.793Z,31.60
2023-01-04T05:30:45.725Z,29.17
2023-01-04T05:33:13.647Z,28.70
2023-01-04T05:35:40.954Z,26.80
2023-01-04T05:38:08.208Z,24.07
2023-01-04T05:40:35.456Z,22.60
2023-01-04T05:43:02.879Z,29.07
2023-01-04T05:45:30.206Z,22.93
2023-01-04T05:47:57.479Z,27.03
2023-01-04T05:50:25.255Z,23.07
2023-01-04T05:52:53.022Z,25.83
2023-01-04T05:55:20.628Z,24.63
2023-01-04T05:57:48.174Z,21.83
2023-01-04T06:00:15.939Z,28.70
2023-01-04T06:02:44.177Z,25.13
2023-01-04T06:05:12.788Z,32.23
2023-01-04T06:07:40.904Z,29.17
2023-01-04T06:10:10.308Z,26.47
2023-01-04T06:12:38.265Z,31.63
2023-01-04T06:15:06.591Z,26.90
2023-01-04T06:17:34.972Z,26.83
2023-01-04T06:20:03.713Z,25.77
2023-01-04T06:22:31.136Z,25.80
2023-01-04T06:24:58.984Z,21.20
2023-01-04T06:27:26.265Z,22.87
2023-01-04T06:29:53.736Z,19.47
2023-01-04T06:32:21.183Z,15.77
2023-01-04T06:34:48.581Z,14.60
2023-01-04T06:37:16.055Z,15.90
2023-01-04T06:39:43.338Z,15.93
2023-01-04T06:42:30.717Z,14.13
2023-01-04T06:44:58.043Z,13.87
2023-01-04T06:47:25.564Z,12.87
2023-01-04T06:49:53.245Z,12.07
2023-01-04T06:52:20.504Z,12.73
2023-01-04T06:54:48.158Z,11.90
2023-01-04T06:57:15.467Z,10.13
2023-01-04T06:59:42.797Z,10.40
2023-01-04T07:02:15.251Z,10.57
2023-01-04T07:04:43.876Z,9.13
2023-01-04T07:07:11.760Z,11.53
2023-01-04T07:09:39.535Z,9.77
2023-01-04T07:12:07.136Z,8.60
2023-01-04T07:14:34.587Z,9.70
2023-01-04T07:17:02.022Z,10.33
2023-01-04T07:19:29.353Z,10.73
2023-01-04T07:21:59.013Z,11.00
2023-01-04T07:24:30.448Z,11.43
2023-01-04T07:27:01.405Z,11.60
2023-01-04T07:29:29.086Z,15.37
2023-01-04T07:31:56.520Z,12.80
2023-01-04T07:34:25.758Z,12.83
2023-01-04T07:36:53.247Z,16.93
2023-01-04T07:39:21.402Z,16.37
2023-01-04T07:41:50.479Z,12.03
2023-01-04T07:44:25.599Z,11.57
2023-01-04T07:46:52.980Z,10.20
2023-01-04T07:49:20.754Z,10.23
2023-01-04T07:51:48.986Z,9.53
2023-01-04T07:54:17.983Z,7.90
2023-01-04T07:56:46.604Z,7.23
2023-01-04T07:59:15.682Z,7.67
2023-01-04T08:01:43.886Z,7.50
2023-01-04T08:04:13.015Z,6.73
2023-01-04T08:06:42.142Z,6.63
2023-01-04T08:09:11.618Z,6.30
2023-01-04T08:11:39.284Z,5.87
2023-01-04T08:14:06.734Z,7.33
2023-01-04T08:16:36.847Z,7.23
2023-01-04T08:19:12.921Z,8.17
2023-01-04T08:21:40.654Z,6.37
2023-01-04T08:24:09.952Z,6.47
2023-01-04T08:26:37.231Z,6.93
2023-01-04T08:29:04.467Z,7.63
2023-01-04T08:31:33.502Z,6.13
2023-01-04T08:34:06.381Z,6.37
2023-01-04T08:36:35.970Z,6.57
2023-01-04T08:39:06.163Z,6.80
2023-01-04T08:42:04.188Z,10.00
2023-01-04T08:44:35.423Z,9.80
2023-01-04T08:47:03.220Z,9.33
2023-01-04T08:49:30.737Z,8.53
2023-01-04T08:51:58.107Z,10.80
2023-01-04T08:54:25.568Z,8.63
2023-01-04T08:56:53.258Z,8.67
2023-01-04T08:59:20.909Z,8.40
2023-01-04T09:01:48.454Z,7.40
2023-01-04T09:04:16.224Z,7.93
2023-01-04T09:06:43.567Z,8.07
2023-01-04T09:09:11.020Z,6.37
2023-01-04T09:11:39.237Z,6.17
2023-01-04T09:14:09.313Z,6.37
2023-01-04T09:16:38.487Z,5.10
2023-01-04T09:19:06.971Z,4.83
2023-01-04T09:21:34.606Z,5.03
2023-01-04T09:24:01.935Z,5.00
2023-01-04T09:26:29.412Z,4.93
2023-01-04T09:28:57.070Z,5.83
2023-01-04T09:31:29.152Z,5.37
2023-01-04T09:34:15.325Z,5.40
2023-01-04T09:36:44.931Z,4.87
2023-01-04T09:39:21.129Z,4.47
2023-01-04T09:41:59.888Z,4.80
2023-01-04T09:47:58.355Z,5.57
2023-01-04T09:50:48.687Z,5.13
2023-01-04T09:53:36.455Z,4.90
2023-01-04T09:56:26.521Z,5.57
2023-01-04T09:58:55.339Z,5.17
2023-01-04T10:01:26.384Z,5.90
2023-01-04T10:04:16.220Z,6.13
2023-01-04T10:06:43.855Z,4.90
2023-01-04T10:09:15.451Z,6.23
2023-01-04T10:12:09.709Z,6.30
2023-01-04T10:14:56.435Z,6.77
2023-01-04T10:21:30.016Z,6.43
2023-01-04T10:24:34.166Z,6.50
2023-01-04T10:27:25.045Z,5.90
2023-01-04T10:30:49.494Z,6.27
2023-01-04T10:33:32.488Z,6.07
2023-01-04T10:36:00.672Z,6.33
2023-01-04T10:38:36.536Z,6.37
2023-01-04T10:41:10.958Z,6.60
2023-01-04T10:44:11.076Z,6.63
2023-01-04T10:46:47.228Z,27.20
2023-01-04T10:49:28.721Z,6.63
2023-01-04T10:52:11.195Z,7.03
2023-01-04T10:54:49.579Z,6.93
2023-01-04T10:57:24.108Z,6.00
2023-01-04T11:00:03.860Z,6.10
2023-01-04T11:02:46.963Z,6.17
2023-01-04T11:05:20.894Z,9.50
2023-01-04T11:07:52.649Z,6.17
2023-01-04T11:10:52.229Z,6.50
2023-01-04T11:13:20.031Z,5.90
2023-01-04T11:15:47.974Z,5.50
2023-01-04T11:18:16.021Z,5.13
2023-01-04T11:20:44.121Z,4.40
2023-01-04T11:23:14.961Z,5.07
2023-01-04T11:25:57.119Z,4.97
2023-01-04T11:28:31.062Z,4.60
2023-01-04T11:31:09.283Z,4.23
2023-01-04T11:33:57.333Z,4.37
2023-01-04T11:36:44.835Z,5.73
2023-01-04T11:39:26.435Z,4.40
2023-01-04T11:42:02.692Z,4.67
2023-01-04T11:44:33.347Z,4.37
2023-01-04T11:47:19.889Z,4.30
2023-01-04T11:49:48.227Z,4.90
2023-01-04T11:52:27.816Z,4.70
2023-01-04T11:54:55.598Z,4.87
2023-01-04T11:57:23.071Z,4.60
2023-01-04T12:00:14.843Z,4.80
2023-01-04T12:05:32.314Z,4.30
2023-01-04T12:07:59.777Z,4.63
2023-01-04T12:10:28.646Z,4.40
2023-01-04T12:12:59.993Z,4.20
2023-01-04T12:15:46.095Z,4.50
2023-01-04T12:18:22.718Z,4.37
2023-01-04T12:20:50.100Z,3.97
2023-01-04T12:23:18.022Z,3.50
2023-01-04T12:25:51.181Z,3.93
2023-01-04T12:28:34.450Z,3.57
2023-01-04T12:31:21.291Z,3.63
2023-01-04T12:33:54.223Z,3.83
2023-01-04T12:36:41.633Z,3.77
2023-01-04T12:39:15.318Z,3.30
2023-01-04T12:42:00.692Z,3.17
2023-01-04T12:44:40.288Z,3.27
2023-01-04T12:47:38.705Z,2.83
2023-01-04T12:50:31.271Z,3.03
2023-01-04T12:53:19.914Z,3.03
2023-01-04T12:55:54.263Z,3.13
2023-01-04T12:58:42.299Z,2.87
2023-01-04T13:01:24.799Z,3.03
2023-01-04T13:04:04.313Z,3.23
2023-01-04T13:06:39.720Z,2.97
2023-01-04T13:09:24.027Z,3.30
2023-01-04T13:12:06.484Z,3.37
2023-01-04T13:14:42.260Z,2.90
2023-01-04T13:17:25.777Z,3.27
2023-01-04T13:19:53.414Z,2.70
2023-01-04T13:22:28.659Z,7.53
2023-01-04T13:24:59.268Z,3.13
2023-01-04T13:27:27.393Z,3.70
2023-01-04T13:29:55.120Z,5.47
2023-01-04T13:32:31.094Z,5.60
2023-01-04T13:35:13.570Z,4.07
2023-01-04T13:37:45.494Z,3.93
2023-01-04T13:40:34.335Z,4.70
2023-01-04T13:43:10.980Z,5.67
2023-01-04T13:45:44.216Z,3.73
2023-01-04T13:48:15.938Z,3.80
2023-01-04T13:50:47.440Z,4.40
2023-01-04T13:53:24.252Z,4.73
2023-01-04T13:56:00.387Z,4.50
2023-01-04T13:58:34.984Z,4.20
2023-01-04T14:01:11.711Z,4.00
2023-01-04T14:03:44.854Z,5.80
2023-01-04T14:06:14.513Z,4.30
2023-01-04T14:09:05.979Z,4.20
2023-01-04T14:12:09.092Z,3.93
2023-01-04T14:14:45.835Z,3.53
2023-01-04T14:17:15.691Z,3.80
2023-01-04T14:19:58.329Z,3.37
2023-01-04T14:22:28.597Z,3.97
2023-01-04T14:27:46.015Z,3.60
2023-01-04T14:30:19.340Z,3.63
2023-01-04T14:33:02.714Z,3.43
2023-01-04T14:35:30.573Z,3.90
2023-01-04T14:38:06.514Z,4.00
2023-01-04T14:40:35.620Z,4.00
2023-01-04T14:43:02.854Z,3.93
2023-01-04T14:45:30.465Z,5.00
2023-01-04T14:47:57.721Z,4.20
2023-01-04T14:50:25.066Z,5.03
2023-01-04T14:52:53.765Z,8.43
2023-01-04T14:55:23.463Z,6.57
2023-01-04T14:57:50.861Z,7.27
2023-01-04T15:00:19.817Z,7.90
2023-01-04T15:02:51.987Z,4.83
2023-01-04T15:05:22.666Z,7.13
2023-01-04T15:07:50.157Z,4.40
2023-01-04T15:10:26.545Z,4.20
2023-01-04T15:12:54.855Z,7.17
2023-01-04T15:15:22.415Z,5.70
2023-01-04T15:17:49.958Z,7.27
2023-01-04T15:20:17.392Z,7.03
2023-01-04T15:22:44.861Z,4.90
2023-01-04T15:25:12.574Z,27.33
2023-01-04T15:27:42.424Z,13.87
2023-01-04T15:30:12.479Z,6.67
2023-01-04T15:32:40.546Z,10.10
2023-01-04T15:35:08.910Z,6.10
2023-01-04T15:37:36.565Z,6.00
2023-01-04T15:40:04.177Z,8.77
2023-01-04T15:42:54.435Z,7.63
2023-01-04T15:45:23.960Z,12.00
2023-01-04T15:47:52.307Z,11.60
2023-01-04T15:50:20.478Z,10.40
2023-01-04T15:52:47.761Z,7.63
2023-01-04T15:55:15.573Z,7.70
2023-01-04T15:57:44.273Z,8.57
2023-01-04T16:00:12.487Z,11.97
2023-01-04T16:02:40.009Z,8.97
2023-01-04T16:05:07.892Z,9.60
2023-01-04T16:07:36.705Z,9.57
2023-01-04T16:10:04.892Z,8.97
2023-01-04T16:12:53.012Z,10.10
2023-01-04T16:15:24.180Z,28.87
2023-01-04T16:17:51.598Z,12.60
2023-01-04T16:20:19.409Z,9.77
2023-01-04T16:22:46.903Z,9.00
2023-01-04T16:25:14.504Z,23.70
2023-01-04T16:27:43.881Z,10.80
2023-01-04T16:30:13.996Z,11.20
2023-01-04T16:32:44.658Z,9.60
2023-01-04T16:35:12.525Z,18.80
2023-01-04T16:37:40.111Z,17.20
2023-01-04T16:40:09.419Z,12.63
2023-01-04T16:42:37.948Z,15.13
2023-01-04T16:45:06.674Z,8.83
2023-01-04T16:47:41.838Z,7.97
2023-01-04T16:50:10.360Z,6.47
2023-01-04T16:52:38.676Z,5.57
2023-01-04T16:55:07.153Z,4.57
2023-01-04T16:57:34.678Z,13.40
2023-01-04T17:00:02.194Z,7.87
2023-01-04T17:02:29.617Z,12.57
2023-01-04T17:04:59.941Z,7.90
2023-01-04T17:07:33.091Z,10.73
2023-01-04T17:10:01.217Z,8.87
2023-01-04T17:15:42.874Z,4.80
2023-01-04T17:18:04.565Z,4.80
2023-01-04T17:20:31.936Z,4.80
2023-01-04T17:22:59.242Z,4.80
2023-01-04T17:25:26.550Z,4.80
2023-01-04T17:27:53.960Z,5.63
2023-01-04T17:30:21.268Z,4.87
2023-01-04T17:32:48.868Z,5.20
2023-01-04T17:35:16.311Z,5.30
2023-01-04T17:37:43.635Z,6.23
2023-01-04T17:40:11.743Z,6.33
2023-01-04T17:42:41.081Z,10.60
2023-01-04T17:45:08.937Z,9.60
2023-01-04T17:47:36.203Z,8.00
2023-01-04T17:50:04.230Z,9.97
2023-01-04T17:52:31.780Z,11.03
2023-01-04T17:54:59.206Z,9.67
2023-01-04T17:57:28.212Z,9.57
2023-01-04T17:59:55.538Z,11.53
2023-01-04T18:02:22.962Z,11.77
2023-01-04T18:04:50.390Z,11.90
2023-01-04T18:07:17.752Z,11.23
2023-01-04T18:09:45.079Z,12.47
2023-01-04T18:12:12.707Z,12.63
2023-01-04T18:14:40.078Z,12.30
2023-01-04T18:17:07.490Z,11.80
2023-01-04T18:19:34.826Z,10.87
2023-01-04T18:22:03.026Z,11.33
2023-01-04T18:24:36.738Z,10.93
2023-01-04T18:27:22.092Z,10.60
2023-01-04T18:29:51.511Z,9.50
2023-01-04T18:32:19.442Z,9.30
2023-01-04T18:34:46.793Z,9.53
2023-01-04T18:37:16.159Z,9.60
2023-01-04T18:39:44.277Z,9.60
2023-01-04T18:42:11.587Z,9.80
2023-01-04T18:44:44.111Z,10.33
2023-01-04T18:47:13.897Z,8.43
2023-01-04T18:49:41.353Z,9.00
2023-01-04T18:52:08.810Z,9.10
2023-01-04T18:54:36.392Z,9.63
2023-01-04T18:57:05.062Z,9.47
2023-01-04T18:59:33.032Z,9.40
2023-01-04T19:02:03.648Z,11.53
2023-01-04T19:04:33.262Z,8.60
2023-01-04T19:07:01.538Z,8.87
2023-01-04T19:09:28.883Z,9.37
2023-01-04T19:11:56.199Z,8.73
2023-01-04T19:14:23.493Z,8.27
2023-01-04T19:16:52.604Z,8.23
2023-01-04T19:19:20.300Z,8.57
2023-01-04T19:21:47.694Z,8.03
2023-01-04T19:24:15.307Z,8.50
2023-01-04T19:26:42.773Z,8.27
2023-01-04T19:29:10.214Z,10.70
2023-01-04T19:31:38.077Z,10.53
2023-01-04T19:34:05.461Z,10.10
2023-01-04T19:36:32.853Z,10.37
2023-01-04T19:39:00.334Z,9.40
2023-01-04T19:41:33.818Z,8.00
2023-01-04T19:44:06.857Z,8.97
2023-01-04T19:46:34.232Z,8.17
2023-01-04T19:49:01.776Z,7.70
2023-01-04T19:51:29.080Z,7.63
2023-01-04T19:53:56.888Z,7.93
2023-01-04T19:56:24.342Z,8.10
2023-01-04T19:58:51.873Z,8.93
2023-01-04T20:01:21.986Z,9.13
2023-01-04T20:03:51.281Z,7.63
2023-01-04T20:06:18.817Z,7.90
2023-01-04T20:08:46.116Z,6.63
2023-01-04T20:11:13.729Z,7.13
2023-01-04T20:13:41.287Z,7.90
2023-01-04T20:16:08.999Z,7.70
2023-01-04T20:18:37.652Z,7.00
2023-01-04T20:21:10.768Z,8.20
2023-01-04T20:23:38.725Z,7.43
2023-01-04T20:26:12.597Z,7.63
2023-01-04T20:28:41.873Z,7.97
2023-01-04T20:31:11.961Z,7.67
2023-01-04T20:33:39.446Z,9.30
2023-01-04T20:36:08.881Z,8.83
2023-01-04T20:38:40.782Z,7.17
2023-01-04T20:41:11.521Z,7.03
2023-01-04T20:43:39.386Z,6.83
2023-01-04T20:46:14.427Z,5.33
2023-01-04T20:48:42.398Z,4.63
2023-01-04T20:51:24.085Z,5.70
2023-01-04T20:53:52.207Z,4.83
2023-01-04T20:56:22.008Z,5.23
2023-01-04T20:58:50.292Z,4.67
2023-01-04T21:01:19.669Z,4.70
2023-01-04T21:03:47.818Z,4.60
2023-01-04T21:06:17.141Z,5.73
2023-01-04T21:08:45.170Z,4.47
2023-01-04T21:11:13.472Z,5.07
2023-01-04T21:13:40.995Z,4.90
2023-01-04T21:16:09.194Z,3.53
2023-01-04T21:18:37.241Z,1.30
2023-01-04T21:21:06.830Z,1.37
2023-01-04T21:23:34.281Z,1.70
2023-01-04T21:26:06.874Z,1.43
2023-01-04T21:28:35.084Z,1.57
2023-01-04T21:31:02.679Z,1.10
2023-01-04T21:33:30.422Z,4.60
2023-01-04T21:35:57.705Z,2.20
2023-01-04T21:38:25.141Z,1.17
2023-01-04T21:40:52.724Z,0.90
2023-01-04T21:43:20.102Z,0.67
2023-01-04T21:45:47.462Z,1.00
2023-01-04T21:48:14.848Z,0.83
2023-01-04T21:50:42.096Z,1.50
2023-01-04T21:53:09.524Z,1.00
2023-01-04T21:55:36.900Z,0.90
2023-01-04T21:58:04.545Z,0.80
2023-01-04T22:00:31.805Z,0.80
2023-01-04T22:02:59.100Z,0.83
2023-01-04T22:05:26.476Z,1.17
2023-01-04T22:07:53.820Z,1.17
2023-01-04T22:10:22.167Z,1.20
2023-01-04T22:12:50.395Z,2.20
2023-01-04T22:15:17.653Z,1.50
2023-01-04T22:17:45.311Z,1.80
2023-01-04T22:20:12.624Z,1.17
2023-01-04T22:22:40.106Z,0.80
2023-01-04T22:25:08.683Z,0.70
2023-01-04T22:27:36.635Z,0.83
2023-01-04T22:30:06.511Z,0.40
2023-01-04T22:32:33.786Z,0.30
2023-01-04T22:35:01.185Z,0.83
2023-01-04T22:37:28.680Z,0.30
2023-01-04T22:39:56.103Z,0.27
2023-01-04T22:42:23.366Z,0.20
2023-01-04T22:44:51.083Z,0.30
2023-01-04T22:47:18.420Z,0.30
2023-01-04T22:49:45.836Z,0.40
2023-01-04T22:52:13.084Z,0.30
2023-01-04T22:54:40.349Z,0.37
2023-01-04T22:57:07.682Z,0.33
2023-01-04T22:59:35.404Z,0.30
2023-01-04T23:02:02.842Z,1.17
2023-01-04T23:04:30.161Z,1.63
2023-01-04T23:06:57.712Z,0.20
2023-01-04T23:09:25.869Z,0.30
2023-01-04T23:11:53.117Z,0.30
2023-01-04T23:14:20.799Z,0.30
2023-01-04T23:16:48.368Z,1.20
2023-01-04T23:19:15.791Z,0.30
2023-01-04T23:21:43.627Z,0.40
2023-01-04T23:24:13.772Z,0.30
2023-01-04T23:26:42.473Z,2.97
2023-01-04T23:29:11.148Z,0.37
2023-01-04T23:31:38.700Z,1.30
2023-01-04T23:34:06.925Z,0.40
2023-01-04T23:36:37.494Z,0.40
2023-01-04T23:39:08.997Z,2.00
2023-01-04T23:41:45.418Z,0.40
2023-01-04T23:46:59.003Z,0.30
2023-01-04T23:49:28.427Z,0.50
2023-01-04T23:51:56.316Z,0.30
2023-01-04T23:54:24.013Z,0.40
2023-01-04T23:56:52.090Z,0.40
2023-01-04T23:59:20.183Z,0.40
